Durham, Oregon
Current Conditions -  °F | °C
As of 4:15 AM on Friday 31 Oct 2014 (Local Time) from KHIO Reporting Station
Moderate Rain Moderate Rain  
Wind Chill: 55°   Ceiling: 1500
Heat Index: 55°   Visibility: 3mi
Dew Point: 55°   Wind: 0mph
Humidity: 100%   Direction: NA
Pressure: 29.68"   Gusts: NA
Location:  45.4077°N, 122.809°W
Report Text: KHIO 311115Z AUTO 00000KT 3SM RA BR FEW003 BKN015 OVC022 13/13 A2968 RMK AO2 P0007 T01280128 TSNO
Loading
Personal Weather Stations






























Interactive Weather Map
Tropical Storm Tracking
New forecast layout! Learn more

10-Day Weather Forecast

Advertisements
Track Severe Weather on mobile